Terminal Aerodrome Forecast
Issued by NWS Lake Charles, LA

Home | Current Version | Previous Version | Text Only | Print | Product List | Glossary On
Versions: 1 2 3 4 5 6 7 8 9 10 11 12 13 14 15 16
000
FTUS44 KLCH 251534 AAA
TAFARA
TAF AMD
KARA 251534Z 2516/2612 19016G25KT P6SM VCTS BKN025CB
      TEMPO 2516/2518 3SM -TSRA BKN015CB
     FM251800 23014G20KT P6SM SKC
     FM260000 VRB05KT P6SM SKC=

USA.gov is the U.S. government's official web portal to all federal, state and local government web resources and services.